sensor_id;sensor_type;location;lat;lon;timestamp;temperature;humidity
50738;DHT22;36703;48.154;17.126;2023-06-22T00:03:27;28.30;50.20
50738;DHT22;36703;48.154;17.126;2023-06-22T00:07:29;28.30;50.30
50738;DHT22;36703;48.154;17.126;2023-06-22T00:11:31;28.30;50.50
50738;DHT22;36703;48.154;17.126;2023-06-22T00:15:35;28.30;50.50
50738;DHT22;36703;48.154;17.126;2023-06-22T00:19:37;28.30;50.50
50738;DHT22;36703;48.154;17.126;2023-06-22T00:23:41;28.30;50.50
50738;DHT22;36703;48.154;17.126;2023-06-22T00:27:44;28.30;50.60
50738;DHT22;36703;48.154;17.126;2023-06-22T00:31:45;28.30;50.80
50738;DHT22;36703;48.154;17.126;2023-06-22T00:35:47;28.30;50.90
50738;DHT22;36703;48.154;17.126;2023-06-22T00:39:48;28.20;51.00
50738;DHT22;36703;48.154;17.126;2023-06-22T00:43:50;28.10;51.30
50738;DHT22;36703;48.154;17.126;2023-06-22T00:47:53;28.10;51.40
50738;DHT22;36703;48.154;17.126;2023-06-22T00:51:56;28.00;51.70
50738;DHT22;36703;48.154;17.126;2023-06-22T00:55:58;28.00;51.70
50738;DHT22;36703;48.154;17.126;2023-06-22T01:00:01;28.00;51.50
50738;DHT22;36703;48.154;17.126;2023-06-22T01:04:02;28.00;51.60
50738;DHT22;36703;48.154;17.126;2023-06-22T01:12:16;27.80;51.80
50738;DHT22;36703;48.154;17.126;2023-06-22T01:16:29;27.90;51.70
50738;DHT22;36703;48.154;17.126;2023-06-22T01:20:34;27.90;51.50
50738;DHT22;36703;48.154;17.126;2023-06-22T01:28:55;28.00;51.80
50738;DHT22;36703;48.154;17.126;2023-06-22T01:32:59;28.00;51.10
50738;DHT22;36703;48.154;17.126;2023-06-22T01:37:02;28.10;51.10
50738;DHT22;36703;48.154;17.126;2023-06-22T01:41:04;28.20;51.00
50738;DHT22;36703;48.154;17.126;2023-06-22T01:45:07;28.20;50.90
50738;DHT22;36703;48.154;17.126;2023-06-22T01:49:09;28.00;50.80
50738;DHT22;36703;48.154;17.126;2023-06-22T01:53:11;27.90;50.90
50738;DHT22;36703;48.154;17.126;2023-06-22T01:57:13;27.90;51.00
50738;DHT22;36703;48.154;17.126;2023-06-22T02:01:21;28.00;51.10
50738;DHT22;36703;48.154;17.126;2023-06-22T02:05:33;28.00;50.90
50738;DHT22;36703;48.154;17.126;2023-06-22T02:09:38;27.90;50.80
50738;DHT22;36703;48.154;17.126;2023-06-22T02:13:43;27.80;50.90
50738;DHT22;36703;48.154;17.126;2023-06-22T02:17:45;27.80;51.00
50738;DHT22;36703;48.154;17.126;2023-06-22T02:21:47;27.70;51.00
50738;DHT22;36703;48.154;17.126;2023-06-22T02:25:49;27.70;51.00
50738;DHT22;36703;48.154;17.126;2023-06-22T02:29:51;27.80;50.90
50738;DHT22;36703;48.154;17.126;2023-06-22T02:33:52;27.90;50.70
50738;DHT22;36703;48.154;17.126;2023-06-22T02:37:54;27.90;50.70
50738;DHT22;36703;48.154;17.126;2023-06-22T02:41:55;28.00;50.70
50738;DHT22;36703;48.154;17.126;2023-06-22T02:45:57;28.00;50.70
50738;DHT22;36703;48.154;17.126;2023-06-22T02:49:59;28.00;50.80
50738;DHT22;36703;48.154;17.126;2023-06-22T02:54:01;27.90;50.70
50738;DHT22;36703;48.154;17.126;2023-06-22T02:58:04;27.80;50.70
50738;DHT22;36703;48.154;17.126;2023-06-22T03:02:08;27.70;50.80
50738;DHT22;36703;48.154;17.126;2023-06-22T03:06:10;27.60;50.70
50738;DHT22;36703;48.154;17.126;2023-06-22T03:10:15;27.50;50.60
50738;DHT22;36703;48.154;17.126;2023-06-22T03:14:17;27.50;50.50
50738;DHT22;36703;48.154;17.126;2023-06-22T03:18:19;27.60;50.30
50738;DHT22;36703;48.154;17.126;2023-06-22T03:22:20;27.60;50.00
50738;DHT22;36703;48.154;17.126;2023-06-22T03:26:24;27.50;49.90
50738;DHT22;36703;48.154;17.126;2023-06-22T03:30:28;27.40;49.90
50738;DHT22;36703;48.154;17.126;2023-06-22T03:34:29;27.40;49.90
50738;DHT22;36703;48.154;17.126;2023-06-22T03:38:35;27.40;50.00
50738;DHT22;36703;48.154;17.126;2023-06-22T03:42:37;27.60;50.20
50738;DHT22;36703;48.154;17.126;2023-06-22T03:46:38;27.70;50.20
50738;DHT22;36703;48.154;17.126;2023-06-22T03:50:40;27.70;50.00
50738;DHT22;36703;48.154;17.126;2023-06-22T03:54:41;27.70;50.10
50738;DHT22;36703;48.154;17.126;2023-06-22T03:58:43;27.70;50.20
50738;DHT22;36703;48.154;17.126;2023-06-22T04:02:46;27.70;50.30
50738;DHT22;36703;48.154;17.126;2023-06-22T04:06:47;27.70;50.60
50738;DHT22;36703;48.154;17.126;2023-06-22T04:10:49;27.70;50.80
50738;DHT22;36703;48.154;17.126;2023-06-22T04:14:50;27.70;50.90
50738;DHT22;36703;48.154;17.126;2023-06-22T04:18:52;27.70;50.90
50738;DHT22;36703;48.154;17.126;2023-06-22T04:22:54;27.70;50.80
50738;DHT22;36703;48.154;17.126;2023-06-22T04:26:55;27.70;50.70
50738;DHT22;36703;48.154;17.126;2023-06-22T04:30:57;27.80;50.80
50738;DHT22;36703;48.154;17.126;2023-06-22T04:34:59;27.80;50.70
50738;DHT22;36703;48.154;17.126;2023-06-22T04:39:13;27.80;50.70
50738;DHT22;36703;48.154;17.126;2023-06-22T04:43:16;27.80;50.80
50738;DHT22;36703;48.154;17.126;2023-06-22T04:47:17;27.80;50.90
50738;DHT22;36703;48.154;17.126;2023-06-22T04:51:19;27.90;51.00
50738;DHT22;36703;48.154;17.126;2023-06-22T04:55:23;27.90;51.10
50738;DHT22;36703;48.154;17.126;2023-06-22T04:59:28;27.90;51.30
50738;DHT22;36703;48.154;17.126;2023-06-22T05:03:31;27.90;51.50
50738;DHT22;36703;48.154;17.126;2023-06-22T05:07:36;27.80;51.50
50738;DHT22;36703;48.154;17.126;2023-06-22T05:11:37;27.80;51.50
50738;DHT22;36703;48.154;17.126;2023-06-22T05:15:39;27.90;51.40
50738;DHT22;36703;48.154;17.126;2023-06-22T05:19:41;27.90;51.20
50738;DHT22;36703;48.154;17.126;2023-06-22T05:23:49;27.90;51.10
50738;DHT22;36703;48.154;17.126;2023-06-22T05:27:50;27.80;51.00
50738;DHT22;36703;48.154;17.126;2023-06-22T05:31:53;27.90;51.00
50738;DHT22;36703;48.154;17.126;2023-06-22T05:35:54;27.90;50.90
50738;DHT22;36703;48.154;17.126;2023-06-22T05:39:56;27.90;50.90
50738;DHT22;36703;48.154;17.126;2023-06-22T05:43:58;27.90;50.70
50738;DHT22;36703;48.154;17.126;2023-06-22T05:48:00;27.90;50.60
50738;DHT22;36703;48.154;17.126;2023-06-22T05:52:02;28.00;50.20
50738;DHT22;36703;48.154;17.126;2023-06-22T05:56:04;28.00;49.90
50738;DHT22;36703;48.154;17.126;2023-06-22T06:00:06;28.00;49.60
50738;DHT22;36703;48.154;17.126;2023-06-22T06:04:11;28.00;49.60
50738;DHT22;36703;48.154;17.126;2023-06-22T06:08:13;27.90;49.60
50738;DHT22;36703;48.154;17.126;2023-06-22T06:12:15;28.00;49.80
50738;DHT22;36703;48.154;17.126;2023-06-22T06:16:16;28.00;49.90
50738;DHT22;36703;48.154;17.126;2023-06-22T06:20:21;28.10;50.10
50738;DHT22;36703;48.154;17.126;2023-06-22T06:24:24;28.20;50.30
50738;DHT22;36703;48.154;17.126;2023-06-22T06:28:25;28.20;50.30
50738;DHT22;36703;48.154;17.126;2023-06-22T06:32:27;28.10;50.50
50738;DHT22;36703;48.154;17.126;2023-06-22T06:36:28;28.10;50.50
50738;DHT22;36703;48.154;17.126;2023-06-22T06:40:30;28.10;50.50
50738;DHT22;36703;48.154;17.126;2023-06-22T06:44:31;28.10;50.70
50738;DHT22;36703;48.154;17.126;2023-06-22T06:48:33;28.10;50.60
50738;DHT22;36703;48.154;17.126;2023-06-22T06:52:35;28.10;50.60
50738;DHT22;36703;48.154;17.126;2023-06-22T06:56:36;28.20;50.60
50738;DHT22;36703;48.154;17.126;2023-06-22T07:00:38;28.20;50.70
50738;DHT22;36703;48.154;17.126;2023-06-22T07:04:40;28.20;50.70
50738;DHT22;36703;48.154;17.126;2023-06-22T07:08:41;28.30;50.60
50738;DHT22;36703;48.154;17.126;2023-06-22T07:12:44;28.40;50.60
50738;DHT22;36703;48.154;17.126;2023-06-22T07:16:45;28.40;50.50
50738;DHT22;36703;48.154;17.126;2023-06-22T07:20:47;28.50;50.40
50738;DHT22;36703;48.154;17.126;2023-06-22T07:24:48;28.50;50.30
50738;DHT22;36703;48.154;17.126;2023-06-22T07:28:50;28.60;50.20
50738;DHT22;36703;48.154;17.126;2023-06-22T07:32:52;28.70;50.10
50738;DHT22;36703;48.154;17.126;2023-06-22T07:36:53;28.80;50.10
50738;DHT22;36703;48.154;17.126;2023-06-22T07:40:55;28.90;50.10
50738;DHT22;36703;48.154;17.126;2023-06-22T07:44:56;28.90;50.10
50738;DHT22;36703;48.154;17.126;2023-06-22T07:48:58;29.00;50.20
50738;DHT22;36703;48.154;17.126;2023-06-22T07:53:00;29.10;50.20
50738;DHT22;36703;48.154;17.126;2023-06-22T07:57:02;29.10;50.00
50738;DHT22;36703;48.154;17.126;2023-06-22T08:01:04;29.10;49.70
50738;DHT22;36703;48.154;17.126;2023-06-22T08:05:06;29.20;49.50
50738;DHT22;36703;48.154;17.126;2023-06-22T08:09:09;29.40;49.40
50738;DHT22;36703;48.154;17.126;2023-06-22T08:13:11;29.50;49.10
50738;DHT22;36703;48.154;17.126;2023-06-22T08:17:12;29.60;49.00
50738;DHT22;36703;48.154;17.126;2023-06-22T08:21:14;29.60;48.80
50738;DHT22;36703;48.154;17.126;2023-06-22T08:25:16;29.70;48.60
50738;DHT22;36703;48.154;17.126;2023-06-22T08:29:17;29.70;48.40
50738;DHT22;36703;48.154;17.126;2023-06-22T08:33:20;29.80;48.30
50738;DHT22;36703;48.154;17.126;2023-06-22T08:37:24;29.90;48.30
50738;DHT22;36703;48.154;17.126;2023-06-22T08:41:31;29.90;48.20
50738;DHT22;36703;48.154;17.126;2023-06-22T08:45:33;29.90;48.20
50738;DHT22;36703;48.154;17.126;2023-06-22T08:49:34;29.90;48.10
50738;DHT22;36703;48.154;17.126;2023-06-22T08:53:36;30.10;48.00
50738;DHT22;36703;48.154;17.126;2023-06-22T08:57:38;30.20;47.80
50738;DHT22;36703;48.154;17.126;2023-06-22T09:01:40;30.20;47.50
50738;DHT22;36703;48.154;17.126;2023-06-22T09:05:41;30.30;47.10
50738;DHT22;36703;48.154;17.126;2023-06-22T09:09:43;30.30;46.80
50738;DHT22;36703;48.154;17.126;2023-06-22T09:13:45;30.40;46.70
50738;DHT22;36703;48.154;17.126;2023-06-22T09:17:47;30.50;46.50
50738;DHT22;36703;48.154;17.126;2023-06-22T09:21:49;30.50;46.00
50738;DHT22;36703;48.154;17.126;2023-06-22T09:25:51;30.60;45.90
50738;DHT22;36703;48.154;17.126;2023-06-22T09:29:52;30.70;45.70
50738;DHT22;36703;48.154;17.126;2023-06-22T09:33:54;30.70;45.30
50738;DHT22;36703;48.154;17.126;2023-06-22T09:37:56;30.80;45.00
50738;DHT22;36703;48.154;17.126;2023-06-22T09:41:59;30.90;44.90
50738;DHT22;36703;48.154;17.126;2023-06-22T09:46:01;31.00;44.80
50738;DHT22;36703;48.154;17.126;2023-06-22T09:50:03;31.00;44.70
50738;DHT22;36703;48.154;17.126;2023-06-22T09:54:06;31.10;44.50
50738;DHT22;36703;48.154;17.126;2023-06-22T09:58:08;31.20;44.20
50738;DHT22;36703;48.154;17.126;2023-06-22T10:02:10;31.30;43.80
50738;DHT22;36703;48.154;17.126;2023-06-22T10:06:11;31.40;43.60
50738;DHT22;36703;48.154;17.126;2023-06-22T10:10:13;31.50;43.60
50738;DHT22;36703;48.154;17.126;2023-06-22T10:14:15;31.50;43.30
50738;DHT22;36703;48.154;17.126;2023-06-22T10:18:18;31.70;43.40
50738;DHT22;36703;48.154;17.126;2023-06-22T10:22:19;31.80;43.40
50738;DHT22;36703;48.154;17.126;2023-06-22T10:26:21;31.90;43.50
50738;DHT22;36703;48.154;17.126;2023-06-22T10:30:22;32.10;43.40
50738;DHT22;36703;48.154;17.126;2023-06-22T10:34:24;32.20;43.00
50738;DHT22;36703;48.154;17.126;2023-06-22T10:38:26;32.30;42.90
50738;DHT22;36703;48.154;17.126;2023-06-22T10:42:27;32.40;42.80
50738;DHT22;36703;48.154;17.126;2023-06-22T10:46:29;32.40;42.60
50738;DHT22;36703;48.154;17.126;2023-06-22T10:50:30;32.50;42.60
50738;DHT22;36703;48.154;17.126;2023-06-22T10:54:33;32.50;42.50
50738;DHT22;36703;48.154;17.126;2023-06-22T10:58:35;32.50;42.40
50738;DHT22;36703;48.154;17.126;2023-06-22T11:02:36;32.50;42.40
50738;DHT22;36703;48.154;17.126;2023-06-22T11:06:38;32.60;42.40
50738;DHT22;36703;48.154;17.126;2023-06-22T11:10:39;32.70;42.40
50738;DHT22;36703;48.154;17.126;2023-06-22T11:14:41;32.80;42.30
50738;DHT22;36703;48.154;17.126;2023-06-22T11:18:43;32.80;42.20
50738;DHT22;36703;48.154;17.126;2023-06-22T11:22:44;32.90;42.20
50738;DHT22;36703;48.154;17.126;2023-06-22T11:26:46;32.90;41.90
50738;DHT22;36703;48.154;17.126;2023-06-22T11:30:48;33.00;41.70
50738;DHT22;36703;48.154;17.126;2023-06-22T11:34:50;33.00;41.30
50738;DHT22;36703;48.154;17.126;2023-06-22T11:38:51;33.10;41.20
50738;DHT22;36703;48.154;17.126;2023-06-22T11:42:53;33.10;40.90
50738;DHT22;36703;48.154;17.126;2023-06-22T11:46:54;33.10;40.60
50738;DHT22;36703;48.154;17.126;2023-06-22T11:50:56;33.10;40.50
50738;DHT22;36703;48.154;17.126;2023-06-22T11:54:58;33.10;40.50
50738;DHT22;36703;48.154;17.126;2023-06-22T11:59:00;33.20;40.50
50738;DHT22;36703;48.154;17.126;2023-06-22T12:03:02;33.30;40.60
50738;DHT22;36703;48.154;17.126;2023-06-22T12:07:03;33.30;40.70
50738;DHT22;36703;48.154;17.126;2023-06-22T12:11:05;33.30;40.90
50738;DHT22;36703;48.154;17.126;2023-06-22T12:15:07;33.40;41.10
50738;DHT22;36703;48.154;17.126;2023-06-22T12:19:10;33.40;41.10
50738;DHT22;36703;48.154;17.126;2023-06-22T12:23:12;33.40;41.10
50738;DHT22;36703;48.154;17.126;2023-06-22T12:27:15;33.50;41.50
50738;DHT22;36703;48.154;17.126;2023-06-22T12:31:19;33.50;41.40
50738;DHT22;36703;48.154;17.126;2023-06-22T12:35:20;33.60;41.30
50738;DHT22;36703;48.154;17.126;2023-06-22T12:39:22;33.60;41.30
50738;DHT22;36703;48.154;17.126;2023-06-22T12:43:23;33.70;41.50
50738;DHT22;36703;48.154;17.126;2023-06-22T12:47:25;33.70;42.00
50738;DHT22;36703;48.154;17.126;2023-06-22T12:51:27;33.80;41.50
50738;DHT22;36703;48.154;17.126;2023-06-22T12:55:28;33.80;41.40
50738;DHT22;36703;48.154;17.126;2023-06-22T12:59:30;33.80;41.20
50738;DHT22;36703;48.154;17.126;2023-06-22T13:03:31;33.80;41.20
50738;DHT22;36703;48.154;17.126;2023-06-22T13:07:33;33.90;40.60
50738;DHT22;36703;48.154;17.126;2023-06-22T13:11:34;33.90;40.30
50738;DHT22;36703;48.154;17.126;2023-06-22T13:15:36;33.80;40.00
50738;DHT22;36703;48.154;17.126;2023-06-22T13:19:38;33.80;39.90
50738;DHT22;36703;48.154;17.126;2023-06-22T13:23:39;33.80;39.50
50738;DHT22;36703;48.154;17.126;2023-06-22T13:27:41;33.80;39.30
50738;DHT22;36703;48.154;17.126;2023-06-22T13:31:43;33.80;39.20
50738;DHT22;36703;48.154;17.126;2023-06-22T13:35:45;33.90;39.10
50738;DHT22;36703;48.154;17.126;2023-06-22T13:39:46;33.90;39.00
50738;DHT22;36703;48.154;17.126;2023-06-22T13:43:48;33.90;38.90
50738;DHT22;36703;48.154;17.126;2023-06-22T13:47:49;33.80;38.70
50738;DHT22;36703;48.154;17.126;2023-06-22T13:51:51;33.80;38.90
50738;DHT22;36703;48.154;17.126;2023-06-22T13:55:52;33.80;39.10
50738;DHT22;36703;48.154;17.126;2023-06-22T13:59:54;33.80;39.10
50738;DHT22;36703;48.154;17.126;2023-06-22T14:03:55;33.90;39.00
50738;DHT22;36703;48.154;17.126;2023-06-22T14:07:57;33.90;38.70
50738;DHT22;36703;48.154;17.126;2023-06-22T14:12:03;33.80;38.80
50738;DHT22;36703;48.154;17.126;2023-06-22T14:16:06;33.90;39.20
50738;DHT22;36703;48.154;17.126;2023-06-22T14:20:07;33.90;39.40
50738;DHT22;36703;48.154;17.126;2023-06-22T14:24:09;33.90;39.40
50738;DHT22;36703;48.154;17.126;2023-06-22T14:28:11;33.90;39.40
50738;DHT22;36703;48.154;17.126;2023-06-22T14:32:12;33.90;39.50
50738;DHT22;36703;48.154;17.126;2023-06-22T14:36:17;33.90;39.50
50738;DHT22;36703;48.154;17.126;2023-06-22T14:40:19;33.80;39.60
50738;DHT22;36703;48.154;17.126;2023-06-22T14:44:21;33.80;39.80
50738;DHT22;36703;48.154;17.126;2023-06-22T14:48:23;33.80;39.90
50738;DHT22;36703;48.154;17.126;2023-06-22T14:52:24;33.80;39.90
50738;DHT22;36703;48.154;17.126;2023-06-22T14:56:26;33.80;39.70
50738;DHT22;36703;48.154;17.126;2023-06-22T15:00:27;33.80;39.60
50738;DHT22;36703;48.154;17.126;2023-06-22T15:04:29;33.80;39.50
50738;DHT22;36703;48.154;17.126;2023-06-22T15:08:40;33.80;39.40
50738;DHT22;36703;48.154;17.126;2023-06-22T15:12:41;33.80;39.60
50738;DHT22;36703;48.154;17.126;2023-06-22T15:16:43;33.70;39.80
50738;DHT22;36703;48.154;17.126;2023-06-22T15:20:45;33.70;40.00
50738;DHT22;36703;48.154;17.126;2023-06-22T15:24:46;33.70;40.10
50738;DHT22;36703;48.154;17.126;2023-06-22T15:28:49;33.70;40.30
50738;DHT22;36703;48.154;17.126;2023-06-22T15:32:50;33.70;40.40
50738;DHT22;36703;48.154;17.126;2023-06-22T15:36:52;33.70;40.50
50738;DHT22;36703;48.154;17.126;2023-06-22T15:40:53;33.60;40.60
50738;DHT22;36703;48.154;17.126;2023-06-22T15:44:55;33.60;40.60
50738;DHT22;36703;48.154;17.126;2023-06-22T15:48:56;33.60;40.90
50738;DHT22;36703;48.154;17.126;2023-06-22T15:52:58;33.60;41.00
50738;DHT22;36703;48.154;17.126;2023-06-22T15:56:59;33.60;41.20
50738;DHT22;36703;48.154;17.126;2023-06-22T16:01:01;33.70;41.30
50738;DHT22;36703;48.154;17.126;2023-06-22T16:05:04;33.70;41.30
50738;DHT22;36703;48.154;17.126;2023-06-22T16:09:06;33.70;41.40
50738;DHT22;36703;48.154;17.126;2023-06-22T16:13:07;33.70;41.50
50738;DHT22;36703;48.154;17.126;2023-06-22T16:17:09;33.60;41.60
50738;DHT22;36703;48.154;17.126;2023-06-22T16:21:10;33.70;41.80
50738;DHT22;36703;48.154;17.126;2023-06-22T16:25:13;33.60;41.90
50738;DHT22;36703;48.154;17.126;2023-06-22T16:29:15;33.60;42.00
50738;DHT22;36703;48.154;17.126;2023-06-22T16:33:16;33.60;42.10
50738;DHT22;36703;48.154;17.126;2023-06-22T16:37:18;33.50;42.10
50738;DHT22;36703;48.154;17.126;2023-06-22T16:41:20;33.50;42.30
50738;DHT22;36703;48.154;17.126;2023-06-22T16:45:22;33.50;43.00
50738;DHT22;36703;48.154;17.126;2023-06-22T16:49:24;33.50;42.50
50738;DHT22;36703;48.154;17.126;2023-06-22T16:53:25;33.50;42.60
50738;DHT22;36703;48.154;17.126;2023-06-22T16:57:27;33.50;42.80
50738;DHT22;36703;48.154;17.126;2023-06-22T17:01:29;33.50;42.90
50738;DHT22;36703;48.154;17.126;2023-06-22T17:05:34;33.50;43.00
50738;DHT22;36703;48.154;17.126;2023-06-22T17:09:37;33.50;43.00
50738;DHT22;36703;48.154;17.126;2023-06-22T17:13:42;33.40;42.90
50738;DHT22;36703;48.154;17.126;2023-06-22T17:17:44;33.40;42.90
50738;DHT22;36703;48.154;17.126;2023-06-22T17:21:46;33.40;43.00
50738;DHT22;36703;48.154;17.126;2023-06-22T17:25:48;33.40;43.20
50738;DHT22;36703;48.154;17.126;2023-06-22T17:34:09;33.40;43.60
50738;DHT22;36703;48.154;17.126;2023-06-22T17:38:20;33.30;43.60
50738;DHT22;36703;48.154;17.126;2023-06-22T17:42:23;33.30;43.80
50738;DHT22;36703;48.154;17.126;2023-06-22T17:46:24;33.20;43.80
50738;DHT22;36703;48.154;17.126;2023-06-22T17:50:27;33.20;44.00
50738;DHT22;36703;48.154;17.126;2023-06-22T17:54:31;33.10;44.00
50738;DHT22;36703;48.154;17.126;2023-06-22T17:58:33;33.10;44.10
50738;DHT22;36703;48.154;17.126;2023-06-22T18:02:41;33.10;44.10
50738;DHT22;36703;48.154;17.126;2023-06-22T18:06:46;33.10;44.10
50738;DHT22;36703;48.154;17.126;2023-06-22T18:10:48;33.00;44.20
50738;DHT22;36703;48.154;17.126;2023-06-22T18:14:50;32.90;44.20
50738;DHT22;36703;48.154;17.126;2023-06-22T18:18:53;32.90;44.30
50738;DHT22;36703;48.154;17.126;2023-06-22T18:22:55;32.80;44.30
50738;DHT22;36703;48.154;17.126;2023-06-22T18:26:57;32.80;44.40
50738;DHT22;36703;48.154;17.126;2023-06-22T18:30:59;32.80;44.50
50738;DHT22;36703;48.154;17.126;2023-06-22T18:35:01;32.70;44.40
50738;DHT22;36703;48.154;17.126;2023-06-22T18:39:05;32.70;44.50
50738;DHT22;36703;48.154;17.126;2023-06-22T18:43:09;32.60;44.50
50738;DHT22;36703;48.154;17.126;2023-06-22T18:47:11;32.60;44.60
50738;DHT22;36703;48.154;17.126;2023-06-22T18:51:15;32.60;44.60
50738;DHT22;36703;48.154;17.126;2023-06-22T18:55:17;32.60;44.80
50738;DHT22;36703;48.154;17.126;2023-06-22T19:04:14;32.50;45.00
50738;DHT22;36703;48.154;17.126;2023-06-22T19:08:15;32.40;44.90
50738;DHT22;36703;48.154;17.126;2023-06-22T19:12:18;32.40;44.90
50738;DHT22;36703;48.154;17.126;2023-06-22T19:16:28;32.40;45.00
50738;DHT22;36703;48.154;17.126;2023-06-22T19:20:33;32.30;45.40
50738;DHT22;36703;48.154;17.126;2023-06-22T19:24:49;32.30;45.60
50738;DHT22;36703;48.154;17.126;2023-06-22T19:28:52;32.20;45.70
50738;DHT22;36703;48.154;17.126;2023-06-22T19:32:58;32.20;45.90
50738;DHT22;36703;48.154;17.126;2023-06-22T19:37:00;32.10;46.00
50738;DHT22;36703;48.154;17.126;2023-06-22T19:41:02;32.10;46.00
50738;DHT22;36703;48.154;17.126;2023-06-22T19:45:04;32.10;46.30
50738;DHT22;36703;48.154;17.126;2023-06-22T19:49:06;32.00;46.40
50738;DHT22;36703;48.154;17.126;2023-06-22T19:53:15;32.10;46.60
50738;DHT22;36703;48.154;17.126;2023-06-22T19:57:17;32.00;46.70
50738;DHT22;36703;48.154;17.126;2023-06-22T20:01:59;32.00;46.80
50738;DHT22;36703;48.154;17.126;2023-06-22T20:13:22;32.00;47.10
50738;DHT22;36703;48.154;17.126;2023-06-22T20:24:56;31.90;47.40
50738;DHT22;36703;48.154;17.126;2023-06-22T20:54:48;31.70;48.40
50738;DHT22;36703;48.154;17.126;2023-06-22T21:00:49;31.70;48.80
50738;DHT22;36703;48.154;17.126;2023-06-22T21:25:03;31.50;49.70
50738;DHT22;36703;48.154;17.126;2023-06-22T21:29:49;31.50;49.80
50738;DHT22;36703;48.154;17.126;2023-06-22T21:41:01;31.50;50.10
50738;DHT22;36703;48.154;17.126;2023-06-22T21:46:21;31.50;50.30
50738;DHT22;36703;48.154;17.126;2023-06-22T21:57:28;31.40;50.30
50738;DHT22;36703;48.154;17.126;2023-06-22T22:08:52;31.30;50.60
50738;DHT22;36703;48.154;17.126;2023-06-22T22:14:22;31.20;50.90
50738;DHT22;36703;48.154;17.126;2023-06-22T22:20:30;31.20;51.00
50738;DHT22;36703;48.154;17.126;2023-06-22T23:36:29;30.70;52.90
50738;DHT22;36703;48.154;17.126;2023-06-22T23:40:30;30.70;53.00
50738;DHT22;36703;48.154;17.126;2023-06-22T23:44:32;30.70;53.10
50738;DHT22;36703;48.154;17.126;2023-06-22T23:48:34;30.70;53.10
50738;DHT22;36703;48.154;17.126;2023-06-22T23:52:35;30.70;53.20
50738;DHT22;36703;48.154;17.126;2023-06-22T23:56:37;30.60;53.30
